sensor_id;sensor_type;location;lat;lon;timestamp;P1;durP1;ratioP1;P2;durP2;ratioP2
59300;SDS011;45073;52.740;6.784;2022-08-21T00:00:27;13.60;;;6.80;;
59300;SDS011;45073;52.740;6.784;2022-08-21T00:02:55;11.48;;;6.30;;
59300;SDS011;45073;52.740;6.784;2022-08-21T00:05:22;11.75;;;5.95;;
59300;SDS011;45073;52.740;6.784;2022-08-21T00:07:49;10.73;;;6.13;;
59300;SDS011;45073;52.740;6.784;2022-08-21T00:10:15;14.80;;;7.03;;
59300;SDS011;45073;52.740;6.784;2022-08-21T00:12:41;14.23;;;7.22;;
59300;SDS011;45073;52.740;6.784;2022-08-21T00:15:08;13.75;;;6.70;;
59300;SDS011;45073;52.740;6.784;2022-08-21T00:17:36;13.52;;;6.80;;
59300;SDS011;45073;52.740;6.784;2022-08-21T00:20:04;10.27;;;6.45;;
59300;SDS011;45073;52.740;6.784;2022-08-21T00:22:32;12.38;;;6.00;;
59300;SDS011;45073;52.740;6.784;2022-08-21T00:24:58;13.90;;;7.32;;
59300;SDS011;45073;52.740;6.784;2022-08-21T00:27:23;14.27;;;7.03;;
59300;SDS011;45073;52.740;6.784;2022-08-21T00:29:49;12.90;;;6.90;;
59300;SDS011;45073;52.740;6.784;2022-08-21T00:32:19;10.27;;;5.93;;
59300;SDS011;45073;52.740;6.784;2022-08-21T00:34:46;12.77;;;7.32;;
59300;SDS011;45073;52.740;6.784;2022-08-21T00:37:12;13.27;;;7.43;;
59300;SDS011;45073;52.740;6.784;2022-08-21T00:39:38;13.38;;;7.88;;
59300;SDS011;45073;52.740;6.784;2022-08-21T00:42:03;12.80;;;6.90;;
59300;SDS011;45073;52.740;6.784;2022-08-21T00:44:29;12.95;;;7.35;;
59300;SDS011;45073;52.740;6.784;2022-08-21T00:46:56;15.80;;;7.30;;
59300;SDS011;45073;52.740;6.784;2022-08-21T00:49:22;13.25;;;7.15;;
59300;SDS011;45073;52.740;6.784;2022-08-21T00:51:51;14.75;;;7.47;;
59300;SDS011;45073;52.740;6.784;2022-08-21T00:56:50;12.43;;;7.55;;
59300;SDS011;45073;52.740;6.784;2022-08-21T00:59:30;20.42;;;8.75;;
59300;SDS011;45073;52.740;6.784;2022-08-21T01:02:01;12.90;;;7.20;;
59300;SDS011;45073;52.740;6.784;2022-08-21T01:04:27;11.75;;;6.15;;
59300;SDS011;45073;52.740;6.784;2022-08-21T01:06:52;10.05;;;4.85;;
59300;SDS011;45073;52.740;6.784;2022-08-21T01:09:20;10.15;;;6.57;;
59300;SDS011;45073;52.740;6.784;2022-08-21T01:11:46;11.88;;;6.30;;
59300;SDS011;45073;52.740;6.784;2022-08-21T01:14:12;14.18;;;7.95;;
59300;SDS011;45073;52.740;6.784;2022-08-21T01:16:43;11.55;;;8.32;;
59300;SDS011;45073;52.740;6.784;2022-08-21T01:19:11;12.63;;;7.80;;
59300;SDS011;45073;52.740;6.784;2022-08-21T01:21:37;13.43;;;8.07;;
59300;SDS011;45073;52.740;6.784;2022-08-21T01:24:03;18.98;;;9.85;;
59300;SDS011;45073;52.740;6.784;2022-08-21T01:26:31;14.43;;;9.07;;
59300;SDS011;45073;52.740;6.784;2022-08-21T01:31:37;15.90;;;10.15;;
59300;SDS011;45073;52.740;6.784;2022-08-21T01:34:03;14.52;;;9.07;;
59300;SDS011;45073;52.740;6.784;2022-08-21T01:36:29;15.25;;;9.90;;
59300;SDS011;45073;52.740;6.784;2022-08-21T01:38:55;14.00;;;8.98;;
59300;SDS011;45073;52.740;6.784;2022-08-21T01:41:21;13.00;;;8.35;;
59300;SDS011;45073;52.740;6.784;2022-08-21T01:43:47;13.75;;;9.13;;
59300;SDS011;45073;52.740;6.784;2022-08-21T01:46:13;12.30;;;8.07;;
59300;SDS011;45073;52.740;6.784;2022-08-21T01:48:39;14.00;;;7.57;;
59300;SDS011;45073;52.740;6.784;2022-08-21T01:51:06;13.38;;;7.97;;
59300;SDS011;45073;52.740;6.784;2022-08-21T01:53:33;14.32;;;9.52;;
59300;SDS011;45073;52.740;6.784;2022-08-21T01:56:03;14.57;;;8.63;;
59300;SDS011;45073;52.740;6.784;2022-08-21T01:58:31;15.43;;;9.30;;
59300;SDS011;45073;52.740;6.784;2022-08-21T02:00:58;15.20;;;8.75;;
59300;SDS011;45073;52.740;6.784;2022-08-21T02:03:25;12.82;;;9.32;;
59300;SDS011;45073;52.740;6.784;2022-08-21T02:05:51;13.73;;;9.77;;
59300;SDS011;45073;52.740;6.784;2022-08-21T02:08:17;15.27;;;12.38;;
59300;SDS011;45073;52.740;6.784;2022-08-21T02:10:42;13.30;;;10.35;;
59300;SDS011;45073;52.740;6.784;2022-08-21T02:13:08;15.98;;;11.88;;
59300;SDS011;45073;52.740;6.784;2022-08-21T02:15:34;16.83;;;12.70;;
59300;SDS011;45073;52.740;6.784;2022-08-21T02:18:00;14.43;;;10.55;;
59300;SDS011;45073;52.740;6.784;2022-08-21T02:20:29;16.27;;;12.48;;
59300;SDS011;45073;52.740;6.784;2022-08-21T02:22:56;20.20;;;14.07;;
59300;SDS011;45073;52.740;6.784;2022-08-21T02:25:23;20.27;;;16.38;;
59300;SDS011;45073;52.740;6.784;2022-08-21T02:27:50;16.77;;;12.63;;
59300;SDS011;45073;52.740;6.784;2022-08-21T02:30:21;20.38;;;15.43;;
59300;SDS011;45073;52.740;6.784;2022-08-21T02:32:48;14.30;;;10.85;;
59300;SDS011;45073;52.740;6.784;2022-08-21T02:35:15;17.80;;;8.57;;
59300;SDS011;45073;52.740;6.784;2022-08-21T02:37:45;18.90;;;14.38;;
59300;SDS011;45073;52.740;6.784;2022-08-21T02:40:23;19.77;;;15.02;;
59300;SDS011;45073;52.740;6.784;2022-08-21T02:42:51;19.75;;;15.02;;
59300;SDS011;45073;52.740;6.784;2022-08-21T02:45:18;16.70;;;11.90;;
59300;SDS011;45073;52.740;6.784;2022-08-21T02:47:48;16.15;;;13.30;;
59300;SDS011;45073;52.740;6.784;2022-08-21T02:50:23;16.15;;;12.27;;
59300;SDS011;45073;52.740;6.784;2022-08-21T02:52:54;19.00;;;14.25;;
59300;SDS011;45073;52.740;6.784;2022-08-21T02:55:20;14.65;;;8.02;;
59300;SDS011;45073;52.740;6.784;2022-08-21T02:57:46;19.13;;;13.77;;
59300;SDS011;45073;52.740;6.784;2022-08-21T03:00:13;17.38;;;13.48;;
59300;SDS011;45073;52.740;6.784;2022-08-21T03:02:39;14.75;;;8.27;;
59300;SDS011;45073;52.740;6.784;2022-08-21T03:05:06;12.98;;;10.80;;
59300;SDS011;45073;52.740;6.784;2022-08-21T03:07:33;13.18;;;11.00;;
59300;SDS011;45073;52.740;6.784;2022-08-21T03:09:59;16.25;;;12.15;;
59300;SDS011;45073;52.740;6.784;2022-08-21T03:12:25;14.82;;;11.60;;
59300;SDS011;45073;52.740;6.784;2022-08-21T03:14:50;16.38;;;11.90;;
59300;SDS011;45073;52.740;6.784;2022-08-21T03:17:16;16.50;;;12.95;;
59300;SDS011;45073;52.740;6.784;2022-08-21T03:19:41;16.27;;;11.52;;
59300;SDS011;45073;52.740;6.784;2022-08-21T03:22:07;16.92;;;12.10;;
59300;SDS011;45073;52.740;6.784;2022-08-21T03:24:33;12.88;;;6.82;;
59300;SDS011;45073;52.740;6.784;2022-08-21T03:26:58;16.85;;;12.02;;
59300;SDS011;45073;52.740;6.784;2022-08-21T03:29:24;16.55;;;11.73;;
59300;SDS011;45073;52.740;6.784;2022-08-21T03:31:50;12.93;;;10.38;;
59300;SDS011;45073;52.740;6.784;2022-08-21T03:34:19;15.38;;;11.23;;
59300;SDS011;45073;52.740;6.784;2022-08-21T03:36:45;10.77;;;6.00;;
59300;SDS011;45073;52.740;6.784;2022-08-21T03:39:11;13.27;;;8.90;;
59300;SDS011;45073;52.740;6.784;2022-08-21T03:41:36;13.55;;;9.20;;
59300;SDS011;45073;52.740;6.784;2022-08-21T03:44:02;12.23;;;9.15;;
59300;SDS011;45073;52.740;6.784;2022-08-21T03:46:28;12.07;;;8.00;;
59300;SDS011;45073;52.740;6.784;2022-08-21T03:48:53;14.05;;;9.73;;
59300;SDS011;45073;52.740;6.784;2022-08-21T03:51:20;14.57;;;10.70;;
59300;SDS011;45073;52.740;6.784;2022-08-21T03:53:46;15.45;;;9.98;;
59300;SDS011;45073;52.740;6.784;2022-08-21T03:56:11;12.68;;;6.55;;
59300;SDS011;45073;52.740;6.784;2022-08-21T03:58:37;14.05;;;11.13;;
59300;SDS011;45073;52.740;6.784;2022-08-21T04:01:03;14.68;;;9.82;;
59300;SDS011;45073;52.740;6.784;2022-08-21T04:03:31;14.70;;;9.25;;
59300;SDS011;45073;52.740;6.784;2022-08-21T04:05:59;12.52;;;9.40;;
59300;SDS011;45073;52.740;6.784;2022-08-21T04:08:25;13.88;;;9.25;;
59300;SDS011;45073;52.740;6.784;2022-08-21T04:10:51;13.95;;;9.73;;
59300;SDS011;45073;52.740;6.784;2022-08-21T04:13:19;13.23;;;9.02;;
59300;SDS011;45073;52.740;6.784;2022-08-21T04:15:45;12.32;;;6.18;;
59300;SDS011;45073;52.740;6.784;2022-08-21T04:18:11;16.35;;;9.65;;
59300;SDS011;45073;52.740;6.784;2022-08-21T04:20:37;12.80;;;9.95;;
59300;SDS011;45073;52.740;6.784;2022-08-21T04:23:02;12.07;;;9.60;;
59300;SDS011;45073;52.740;6.784;2022-08-21T04:25:28;12.60;;;10.13;;
59300;SDS011;45073;52.740;6.784;2022-08-21T04:27:54;9.93;;;6.13;;
59300;SDS011;45073;52.740;6.784;2022-08-21T04:30:20;13.40;;;9.95;;
59300;SDS011;45073;52.740;6.784;2022-08-21T04:32:46;15.20;;;10.02;;
59300;SDS011;45073;52.740;6.784;2022-08-21T04:35:14;14.02;;;10.77;;
59300;SDS011;45073;52.740;6.784;2022-08-21T04:37:41;13.13;;;6.50;;
59300;SDS011;45073;52.740;6.784;2022-08-21T04:40:07;14.32;;;10.63;;
59300;SDS011;45073;52.740;6.784;2022-08-21T04:42:40;13.57;;;10.07;;
59300;SDS011;45073;52.740;6.784;2022-08-21T04:45:17;11.57;;;7.10;;
59300;SDS011;45073;52.740;6.784;2022-08-21T04:47:52;14.48;;;10.52;;
59300;SDS011;45073;52.740;6.784;2022-08-21T04:50:23;16.08;;;11.07;;
59300;SDS011;45073;52.740;6.784;2022-08-21T04:52:53;15.60;;;10.70;;
59300;SDS011;45073;52.740;6.784;2022-08-21T04:55:20;13.05;;;6.93;;
59300;SDS011;45073;52.740;6.784;2022-08-21T04:57:47;13.75;;;10.07;;
59300;SDS011;45073;52.740;6.784;2022-08-21T05:00:14;13.40;;;10.10;;
59300;SDS011;45073;52.740;6.784;2022-08-21T05:02:43;14.05;;;10.13;;
59300;SDS011;45073;52.740;6.784;2022-08-21T05:05:09;13.32;;;7.03;;
59300;SDS011;45073;52.740;6.784;2022-08-21T05:07:35;14.05;;;9.93;;
59300;SDS011;45073;52.740;6.784;2022-08-21T05:10:01;15.48;;;10.73;;
59300;SDS011;45073;52.740;6.784;2022-08-21T05:12:27;14.23;;;9.82;;
59300;SDS011;45073;52.740;6.784;2022-08-21T05:14:53;15.10;;;10.40;;
59300;SDS011;45073;52.740;6.784;2022-08-21T05:17:19;17.48;;;15.57;;
59300;SDS011;45073;52.740;6.784;2022-08-21T05:19:44;18.83;;;14.70;;
59300;SDS011;45073;52.740;6.784;2022-08-21T05:22:10;13.93;;;8.50;;
59300;SDS011;45073;52.740;6.784;2022-08-21T05:24:35;15.93;;;13.48;;
59300;SDS011;45073;52.740;6.784;2022-08-21T05:27:01;17.20;;;13.18;;
59300;SDS011;45073;52.740;6.784;2022-08-21T05:29:27;15.50;;;11.27;;
59300;SDS011;45073;52.740;6.784;2022-08-21T05:31:55;16.33;;;11.40;;
59300;SDS011;45073;52.740;6.784;2022-08-21T05:34:22;13.13;;;11.45;;
59300;SDS011;45073;52.740;6.784;2022-08-21T05:36:48;11.73;;;6.72;;
59300;SDS011;45073;52.740;6.784;2022-08-21T05:39:14;15.32;;;9.38;;
59300;SDS011;45073;52.740;6.784;2022-08-21T05:41:39;13.70;;;8.80;;
59300;SDS011;45073;52.740;6.784;2022-08-21T05:44:05;14.32;;;8.65;;
59300;SDS011;45073;52.740;6.784;2022-08-21T05:46:31;12.13;;;6.03;;
59300;SDS011;45073;52.740;6.784;2022-08-21T05:48:56;14.52;;;8.75;;
59300;SDS011;45073;52.740;6.784;2022-08-21T05:51:22;13.32;;;9.80;;
59300;SDS011;45073;52.740;6.784;2022-08-21T05:53:48;14.63;;;10.70;;
59300;SDS011;45073;52.740;6.784;2022-08-21T05:56:14;18.65;;;15.77;;
59300;SDS011;45073;52.740;6.784;2022-08-21T05:58:40;16.55;;;14.75;;
59300;SDS011;45073;52.740;6.784;2022-08-21T06:01:06;20.80;;;17.92;;
59300;SDS011;45073;52.740;6.784;2022-08-21T06:03:34;21.70;;;16.98;;
59300;SDS011;45073;52.740;6.784;2022-08-21T06:06:01;17.92;;;14.05;;
59300;SDS011;45073;52.740;6.784;2022-08-21T06:08:27;12.88;;;8.40;;
59300;SDS011;45073;52.740;6.784;2022-08-21T06:10:54;13.93;;;7.45;;
59300;SDS011;45073;52.740;6.784;2022-08-21T06:13:21;11.77;;;5.18;;
59300;SDS011;45073;52.740;6.784;2022-08-21T06:15:47;13.00;;;7.10;;
59300;SDS011;45073;52.740;6.784;2022-08-21T06:18:13;12.20;;;7.88;;
59300;SDS011;45073;52.740;6.784;2022-08-21T06:20:40;12.15;;;7.38;;
59300;SDS011;45073;52.740;6.784;2022-08-21T06:23:06;13.13;;;8.10;;
59300;SDS011;45073;52.740;6.784;2022-08-21T06:25:31;14.40;;;8.38;;
59300;SDS011;45073;52.740;6.784;2022-08-21T06:28:04;12.23;;;7.88;;
59300;SDS011;45073;52.740;6.784;2022-08-21T06:30:31;15.02;;;7.55;;
59300;SDS011;45073;52.740;6.784;2022-08-21T06:32:58;10.63;;;5.55;;
59300;SDS011;45073;52.740;6.784;2022-08-21T06:35:23;14.10;;;7.40;;
59300;SDS011;45073;52.740;6.784;2022-08-21T06:37:53;13.68;;;7.50;;
59300;SDS011;45073;52.740;6.784;2022-08-21T06:40:19;12.23;;;7.47;;
59300;SDS011;45073;52.740;6.784;2022-08-21T06:42:45;16.67;;;7.22;;
59300;SDS011;45073;52.740;6.784;2022-08-21T06:45:10;14.20;;;5.82;;
59300;SDS011;45073;52.740;6.784;2022-08-21T06:47:36;12.32;;;7.75;;
59300;SDS011;45073;52.740;6.784;2022-08-21T06:50:02;12.88;;;7.10;;
59300;SDS011;45073;52.740;6.784;2022-08-21T06:52:28;12.80;;;7.60;;
59300;SDS011;45073;52.740;6.784;2022-08-21T06:54:54;14.18;;;7.28;;
59300;SDS011;45073;52.740;6.784;2022-08-21T06:57:19;14.70;;;7.60;;
59300;SDS011;45073;52.740;6.784;2022-08-21T06:59:45;12.52;;;6.60;;
59300;SDS011;45073;52.740;6.784;2022-08-21T07:02:10;13.95;;;7.05;;
59300;SDS011;45073;52.740;6.784;2022-08-21T07:04:36;12.90;;;6.95;;
59300;SDS011;45073;52.740;6.784;2022-08-21T07:07:01;13.20;;;6.43;;
59300;SDS011;45073;52.740;6.784;2022-08-21T07:09:27;13.00;;;6.55;;
59300;SDS011;45073;52.740;6.784;2022-08-21T07:11:54;13.07;;;5.75;;
59300;SDS011;45073;52.740;6.784;2022-08-21T07:14:21;11.60;;;5.60;;
59300;SDS011;45073;52.740;6.784;2022-08-21T07:16:47;15.90;;;6.68;;
59300;SDS011;45073;52.740;6.784;2022-08-21T07:19:14;14.63;;;6.05;;
59300;SDS011;45073;52.740;6.784;2022-08-21T07:21:39;12.48;;;5.38;;
59300;SDS011;45073;52.740;6.784;2022-08-21T07:24:05;12.23;;;5.07;;
59300;SDS011;45073;52.740;6.784;2022-08-21T07:26:31;13.18;;;5.55;;
59300;SDS011;45073;52.740;6.784;2022-08-21T07:28:56;12.32;;;5.25;;
59300;SDS011;45073;52.740;6.784;2022-08-21T07:31:22;13.35;;;5.80;;
59300;SDS011;45073;52.740;6.784;2022-08-21T07:33:49;11.38;;;5.45;;
59300;SDS011;45073;52.740;6.784;2022-08-21T07:36:15;11.57;;;5.28;;
59300;SDS011;45073;52.740;6.784;2022-08-21T07:38:42;13.43;;;5.03;;
59300;SDS011;45073;52.740;6.784;2022-08-21T07:41:16;12.18;;;5.40;;
59300;SDS011;45073;52.740;6.784;2022-08-21T07:43:50;13.25;;;5.25;;
59300;SDS011;45073;52.740;6.784;2022-08-21T07:46:16;13.38;;;5.80;;
59300;SDS011;45073;52.740;6.784;2022-08-21T07:48:41;12.20;;;5.55;;
59300;SDS011;45073;52.740;6.784;2022-08-21T07:51:09;12.35;;;5.45;;
59300;SDS011;45073;52.740;6.784;2022-08-21T07:53:36;12.75;;;5.22;;
59300;SDS011;45073;52.740;6.784;2022-08-21T07:56:03;15.40;;;5.75;;
59300;SDS011;45073;52.740;6.784;2022-08-21T07:58:30;14.00;;;4.90;;
59300;SDS011;45073;52.740;6.784;2022-08-21T08:00:57;12.02;;;5.00;;
59300;SDS011;45073;52.740;6.784;2022-08-21T08:03:22;15.45;;;5.05;;
59300;SDS011;45073;52.740;6.784;2022-08-21T08:05:48;11.82;;;4.75;;
59300;SDS011;45073;52.740;6.784;2022-08-21T08:08:14;13.20;;;5.15;;
59300;SDS011;45073;52.740;6.784;2022-08-21T08:10:41;13.10;;;4.82;;
59300;SDS011;45073;52.740;6.784;2022-08-21T08:13:07;13.57;;;5.45;;
59300;SDS011;45073;52.740;6.784;2022-08-21T08:15:33;12.15;;;4.22;;
59300;SDS011;45073;52.740;6.784;2022-08-21T08:17:59;12.88;;;4.88;;
59300;SDS011;45073;52.740;6.784;2022-08-21T08:20:26;11.27;;;4.50;;
59300;SDS011;45073;52.740;6.784;2022-08-21T08:22:52;11.23;;;4.05;;
59300;SDS011;45073;52.740;6.784;2022-08-21T08:25:20;11.48;;;3.97;;
59300;SDS011;45073;52.740;6.784;2022-08-21T08:27:47;14.57;;;4.95;;
59300;SDS011;45073;52.740;6.784;2022-08-21T08:30:15;11.23;;;4.25;;
59300;SDS011;45073;52.740;6.784;2022-08-21T08:32:41;10.88;;;3.40;;
59300;SDS011;45073;52.740;6.784;2022-08-21T08:35:08;10.77;;;4.47;;
59300;SDS011;45073;52.740;6.784;2022-08-21T08:37:34;11.23;;;3.75;;
59300;SDS011;45073;52.740;6.784;2022-08-21T08:40:03;11.52;;;4.32;;
59300;SDS011;45073;52.740;6.784;2022-08-21T08:42:32;11.45;;;3.95;;
59300;SDS011;45073;52.740;6.784;2022-08-21T08:45:05;13.77;;;4.40;;
59300;SDS011;45073;52.740;6.784;2022-08-21T08:47:38;12.35;;;4.13;;
59300;SDS011;45073;52.740;6.784;2022-08-21T08:50:17;12.30;;;3.95;;
59300;SDS011;45073;52.740;6.784;2022-08-21T08:52:52;12.35;;;4.10;;
59300;SDS011;45073;52.740;6.784;2022-08-21T08:55:58;11.02;;;4.40;;
59300;SDS011;45073;52.740;6.784;2022-08-21T08:58:27;11.05;;;4.32;;
59300;SDS011;45073;52.740;6.784;2022-08-21T09:00:58;10.95;;;3.42;;
59300;SDS011;45073;52.740;6.784;2022-08-21T09:03:24;9.88;;;3.63;;
59300;SDS011;45073;52.740;6.784;2022-08-21T09:05:55;9.23;;;3.38;;
59300;SDS011;45073;52.740;6.784;2022-08-21T09:21:53;10.77;;;3.15;;
59300;SDS011;45073;52.740;6.784;2022-08-21T09:24:35;10.43;;;4.05;;
59300;SDS011;45073;52.740;6.784;2022-08-21T09:27:19;11.90;;;3.47;;
59300;SDS011;45073;52.740;6.784;2022-08-21T09:29:47;9.25;;;3.58;;
59300;SDS011;45073;52.740;6.784;2022-08-21T09:32:23;12.35;;;3.25;;
59300;SDS011;45073;52.740;6.784;2022-08-21T09:35:24;11.68;;;3.25;;
59300;SDS011;45073;52.740;6.784;2022-08-21T09:40:40;9.77;;;3.38;;
59300;SDS011;45073;52.740;6.784;2022-08-21T09:45:38;11.23;;;3.85;;
59300;SDS011;45073;52.740;6.784;2022-08-21T09:48:14;8.98;;;3.80;;
59300;SDS011;45073;52.740;6.784;2022-08-21T09:50:44;11.40;;;3.83;;
59300;SDS011;45073;52.740;6.784;2022-08-21T09:53:21;9.02;;;3.83;;
59300;SDS011;45073;52.740;6.784;2022-08-21T09:55:54;12.38;;;3.95;;
59300;SDS011;45073;52.740;6.784;2022-08-21T09:58:46;12.40;;;3.58;;
59300;SDS011;45073;52.740;6.784;2022-08-21T10:01:15;11.35;;;3.60;;
59300;SDS011;45073;52.740;6.784;2022-08-21T10:03:43;13.07;;;3.80;;
59300;SDS011;45073;52.740;6.784;2022-08-21T10:06:10;11.50;;;3.38;;
59300;SDS011;45073;52.740;6.784;2022-08-21T10:08:47;10.13;;;3.53;;
59300;SDS011;45073;52.740;6.784;2022-08-21T10:11:14;11.10;;;3.33;;
59300;SDS011;45073;52.740;6.784;2022-08-21T10:14:00;11.77;;;3.50;;
59300;SDS011;45073;52.740;6.784;2022-08-21T10:16:55;10.25;;;3.67;;
59300;SDS011;45073;52.740;6.784;2022-08-21T10:22:17;11.70;;;3.45;;
59300;SDS011;45073;52.740;6.784;2022-08-21T10:25:00;10.15;;;2.72;;
59300;SDS011;45073;52.740;6.784;2022-08-21T10:30:33;9.90;;;3.13;;
59300;SDS011;45073;52.740;6.784;2022-08-21T10:33:12;11.50;;;3.30;;
59300;SDS011;45073;52.740;6.784;2022-08-21T10:36:00;11.25;;;3.08;;
59300;SDS011;45073;52.740;6.784;2022-08-21T10:41:40;10.45;;;3.08;;
59300;SDS011;45073;52.740;6.784;2022-08-21T10:44:30;9.52;;;2.72;;
59300;SDS011;45073;52.740;6.784;2022-08-21T10:50:06;11.27;;;3.30;;
59300;SDS011;45073;52.740;6.784;2022-08-21T10:55:46;9.02;;;2.30;;
59300;SDS011;45073;52.740;6.784;2022-08-21T10:58:25;11.32;;;2.53;;
59300;SDS011;45073;52.740;6.784;2022-08-21T11:00:57;11.30;;;2.88;;
59300;SDS011;45073;52.740;6.784;2022-08-21T11:03:41;12.95;;;2.75;;
59300;SDS011;45073;52.740;6.784;2022-08-21T11:06:11;9.68;;;2.70;;
59300;SDS011;45073;52.740;6.784;2022-08-21T11:08:48;9.85;;;2.50;;
59300;SDS011;45073;52.740;6.784;2022-08-21T11:11:24;9.05;;;2.58;;
59300;SDS011;45073;52.740;6.784;2022-08-21T11:14:01;10.13;;;2.50;;
59300;SDS011;45073;52.740;6.784;2022-08-21T11:17:00;8.60;;;2.45;;
59300;SDS011;45073;52.740;6.784;2022-08-21T11:22:41;10.02;;;2.22;;
59300;SDS011;45073;52.740;6.784;2022-08-21T11:25:26;10.05;;;1.92;;
59300;SDS011;45073;52.740;6.784;2022-08-21T11:28:00;9.15;;;2.00;;
59300;SDS011;45073;52.740;6.784;2022-08-21T11:30:40;7.93;;;1.92;;
59300;SDS011;45073;52.740;6.784;2022-08-21T11:35:48;9.45;;;2.55;;
59300;SDS011;45073;52.740;6.784;2022-08-21T11:39:02;10.63;;;2.35;;
59300;SDS011;45073;52.740;6.784;2022-08-21T11:43:52;9.80;;;2.05;;
59300;SDS011;45073;52.740;6.784;2022-08-21T11:46:36;11.02;;;2.50;;
59300;SDS011;45073;52.740;6.784;2022-08-21T11:49:38;10.75;;;2.40;;
59300;SDS011;45073;52.740;6.784;2022-08-21T11:52:19;9.80;;;2.10;;
59300;SDS011;45073;52.740;6.784;2022-08-21T12:00:44;8.68;;;2.22;;
59300;SDS011;45073;52.740;6.784;2022-08-21T12:03:16;8.55;;;2.20;;
59300;SDS011;45073;52.740;6.784;2022-08-21T12:05:54;11.15;;;2.10;;
59300;SDS011;45073;52.740;6.784;2022-08-21T12:08:31;10.13;;;2.30;;
59300;SDS011;45073;52.740;6.784;2022-08-21T12:13:59;10.57;;;2.38;;
59300;SDS011;45073;52.740;6.784;2022-08-21T12:16:33;9.93;;;2.28;;
59300;SDS011;45073;52.740;6.784;2022-08-21T12:21:50;9.02;;;2.08;;
59300;SDS011;45073;52.740;6.784;2022-08-21T12:24:20;9.27;;;2.10;;
59300;SDS011;45073;52.740;6.784;2022-08-21T12:30:02;9.63;;;2.10;;
59300;SDS011;45073;52.740;6.784;2022-08-21T12:33:27;12.68;;;2.35;;
59300;SDS011;45073;52.740;6.784;2022-08-21T12:35:51;8.60;;;2.13;;
59300;SDS011;45073;52.740;6.784;2022-08-21T12:38:31;9.20;;;1.80;;
59300;SDS011;45073;52.740;6.784;2022-08-21T12:41:05;9.85;;;2.28;;
59300;SDS011;45073;52.740;6.784;2022-08-21T12:43:43;8.63;;;2.00;;
59300;SDS011;45073;52.740;6.784;2022-08-21T12:46:17;8.02;;;1.88;;
59300;SDS011;45073;52.740;6.784;2022-08-21T12:48:57;9.52;;;2.13;;
59300;SDS011;45073;52.740;6.784;2022-08-21T12:51:31;10.35;;;2.55;;
59300;SDS011;45073;52.740;6.784;2022-08-21T12:54:01;9.65;;;2.30;;
59300;SDS011;45073;52.740;6.784;2022-08-21T12:56:28;11.32;;;2.58;;
59300;SDS011;45073;52.740;6.784;2022-08-21T12:59:04;12.40;;;2.58;;
59300;SDS011;45073;52.740;6.784;2022-08-21T13:01:33;8.05;;;2.00;;
59300;SDS011;45073;52.740;6.784;2022-08-21T13:04:06;10.25;;;2.60;;
59300;SDS011;45073;52.740;6.784;2022-08-21T13:09:04;10.20;;;2.20;;
59300;SDS011;45073;52.740;6.784;2022-08-21T13:11:32;9.25;;;2.30;;
59300;SDS011;45073;52.740;6.784;2022-08-21T13:13:58;12.63;;;2.65;;
59300;SDS011;45073;52.740;6.784;2022-08-21T13:16:27;8.68;;;2.00;;
59300;SDS011;45073;52.740;6.784;2022-08-21T13:19:04;9.15;;;2.20;;
59300;SDS011;45073;52.740;6.784;2022-08-21T13:21:41;10.50;;;2.65;;
59300;SDS011;45073;52.740;6.784;2022-08-21T13:26:46;9.73;;;2.60;;
59300;SDS011;45073;52.740;6.784;2022-08-21T13:29:14;8.60;;;2.28;;
59300;SDS011;45073;52.740;6.784;2022-08-21T13:31:47;10.90;;;2.45;;
59300;SDS011;45073;52.740;6.784;2022-08-21T13:34:17;9.43;;;2.45;;
59300;SDS011;45073;52.740;6.784;2022-08-21T13:36:43;9.68;;;2.80;;
59300;SDS011;45073;52.740;6.784;2022-08-21T13:39:17;9.57;;;2.70;;
59300;SDS011;45073;52.740;6.784;2022-08-21T13:44:15;7.75;;;2.50;;
59300;SDS011;45073;52.740;6.784;2022-08-21T13:46:41;11.70;;;2.80;;
59300;SDS011;45073;52.740;6.784;2022-08-21T13:49:08;10.27;;;2.33;;
59300;SDS011;45073;52.740;6.784;2022-08-21T13:51:35;11.30;;;2.70;;
59300;SDS011;45073;52.740;6.784;2022-08-21T13:54:01;9.30;;;2.33;;
59300;SDS011;45073;52.740;6.784;2022-08-21T13:56:29;9.10;;;2.10;;
59300;SDS011;45073;52.740;6.784;2022-08-21T13:58:55;10.05;;;2.47;;
59300;SDS011;45073;52.740;6.784;2022-08-21T14:01:28;9.90;;;2.45;;
59300;SDS011;45073;52.740;6.784;2022-08-21T14:04:02;10.45;;;2.30;;
59300;SDS011;45073;52.740;6.784;2022-08-21T14:06:45;9.55;;;2.35;;
59300;SDS011;45073;52.740;6.784;2022-08-21T14:09:13;9.60;;;2.25;;
59300;SDS011;45073;52.740;6.784;2022-08-21T14:11:59;11.07;;;2.58;;
59300;SDS011;45073;52.740;6.784;2022-08-21T14:14:30;7.75;;;2.15;;
59300;SDS011;45073;52.740;6.784;2022-08-21T14:17:03;9.70;;;2.50;;
59300;SDS011;45073;52.740;6.784;2022-08-21T14:19:44;12.77;;;2.97;;
59300;SDS011;45073;52.740;6.784;2022-08-21T14:22:36;8.32;;;2.28;;
59300;SDS011;45073;52.740;6.784;2022-08-21T14:25:07;9.90;;;2.30;;
59300;SDS011;45073;52.740;6.784;2022-08-21T14:27:36;9.13;;;2.13;;
59300;SDS011;45073;52.740;6.784;2022-08-21T14:30:11;9.68;;;2.53;;
59300;SDS011;45073;52.740;6.784;2022-08-21T14:32:41;8.73;;;2.25;;
59300;SDS011;45073;52.740;6.784;2022-08-21T14:35:07;8.57;;;2.33;;
59300;SDS011;45073;52.740;6.784;2022-08-21T14:37:33;8.32;;;2.20;;
59300;SDS011;45073;52.740;6.784;2022-08-21T14:39:59;8.55;;;2.03;;
59300;SDS011;45073;52.740;6.784;2022-08-21T14:42:26;10.43;;;2.75;;
59300;SDS011;45073;52.740;6.784;2022-08-21T14:44:52;8.82;;;2.55;;
59300;SDS011;45073;52.740;6.784;2022-08-21T14:47:20;8.55;;;2.20;;
59300;SDS011;45073;52.740;6.784;2022-08-21T14:49:46;8.77;;;2.30;;
59300;SDS011;45073;52.740;6.784;2022-08-21T14:52:12;9.48;;;2.08;;
59300;SDS011;45073;52.740;6.784;2022-08-21T14:54:38;10.60;;;2.55;;
59300;SDS011;45073;52.740;6.784;2022-08-21T14:57:07;9.45;;;2.63;;
59300;SDS011;45073;52.740;6.784;2022-08-21T14:59:35;8.98;;;2.20;;
59300;SDS011;45073;52.740;6.784;2022-08-21T15:02:02;11.18;;;2.70;;
59300;SDS011;45073;52.740;6.784;2022-08-21T15:04:29;11.23;;;2.80;;
59300;SDS011;45073;52.740;6.784;2022-08-21T15:06:55;11.38;;;2.60;;
59300;SDS011;45073;52.740;6.784;2022-08-21T15:09:21;15.07;;;3.03;;
59300;SDS011;45073;52.740;6.784;2022-08-21T15:11:47;10.30;;;2.75;;
59300;SDS011;45073;52.740;6.784;2022-08-21T15:14:17;9.07;;;2.40;;
59300;SDS011;45073;52.740;6.784;2022-08-21T15:16:46;9.77;;;2.30;;
59300;SDS011;45073;52.740;6.784;2022-08-21T15:19:13;9.52;;;2.10;;
59300;SDS011;45073;52.740;6.784;2022-08-21T15:21:38;18.75;;;3.25;;
59300;SDS011;45073;52.740;6.784;2022-08-21T15:24:04;12.05;;;2.47;;
59300;SDS011;45073;52.740;6.784;2022-08-21T15:26:30;9.38;;;2.28;;
59300;SDS011;45073;52.740;6.784;2022-08-21T15:28:55;13.38;;;2.60;;
59300;SDS011;45073;52.740;6.784;2022-08-21T15:31:21;12.48;;;2.78;;
59300;SDS011;45073;52.740;6.784;2022-08-21T15:33:46;9.63;;;2.65;;
59300;SDS011;45073;52.740;6.784;2022-08-21T15:36:12;9.95;;;2.70;;
59300;SDS011;45073;52.740;6.784;2022-08-21T15:38:38;11.52;;;2.72;;
59300;SDS011;45073;52.740;6.784;2022-08-21T15:41:03;10.55;;;2.70;;
59300;SDS011;45073;52.740;6.784;2022-08-21T15:43:32;10.43;;;2.50;;
59300;SDS011;45073;52.740;6.784;2022-08-21T15:46:08;11.18;;;2.75;;
59300;SDS011;45073;52.740;6.784;2022-08-21T15:48:37;11.52;;;3.03;;
59300;SDS011;45073;52.740;6.784;2022-08-21T15:51:02;9.32;;;2.70;;
59300;SDS011;45073;52.740;6.784;2022-08-21T15:53:28;8.30;;;2.47;;
59300;SDS011;45073;52.740;6.784;2022-08-21T15:55:53;9.93;;;2.65;;
59300;SDS011;45073;52.740;6.784;2022-08-21T15:58:19;9.98;;;3.50;;